createdAt,value
2023-04-15T00:02:18.357Z,84.56
2023-04-15T00:04:46.842Z,84.52
2023-04-15T00:07:14.749Z,85.13
2023-04-15T00:09:42.977Z,85.39
2023-04-15T00:12:10.745Z,85.04
2023-04-15T00:14:38.685Z,84.83
2023-04-15T00:17:06.385Z,84.64
2023-04-15T00:19:35.582Z,83.97
2023-04-15T00:22:03.152Z,84.11
2023-04-15T00:24:31.350Z,84.14
2023-04-15T00:26:59.883Z,83.91
2023-04-15T00:29:27.658Z,84.41
2023-04-15T00:31:55.260Z,84.74
2023-04-15T00:34:23.233Z,84.21
2023-04-15T00:36:52.490Z,84.27
2023-04-15T00:39:20.656Z,84.23
2023-04-15T00:41:49.064Z,84.60
2023-04-15T00:44:18.797Z,84.42
2023-04-15T00:46:47.818Z,84.42
2023-04-15T00:49:15.446Z,84.68
2023-04-15T00:51:43.042Z,84.33
2023-04-15T00:54:12.208Z,83.02
2023-04-15T00:56:42.137Z,82.45
2023-04-15T00:59:10.154Z,82.15
2023-04-15T01:01:38.542Z,82.18
2023-04-15T01:04:06.945Z,82.30
2023-04-15T01:06:35.073Z,82.52
2023-04-15T01:09:03.342Z,82.63
2023-04-15T01:11:34.240Z,82.36
2023-04-15T01:14:02.424Z,82.77
2023-04-15T01:16:30.269Z,82.72
2023-04-15T01:18:58.384Z,83.37
2023-04-15T01:21:26.995Z,82.71
2023-04-15T01:23:57.072Z,82.65
2023-04-15T01:26:27.521Z,82.25
2023-04-15T01:28:56.311Z,82.42
2023-04-15T01:31:25.034Z,82.54
2023-04-15T01:33:52.983Z,82.59
2023-04-15T01:36:21.022Z,82.31
2023-04-15T01:38:48.833Z,82.63
2023-04-15T01:41:16.416Z,82.56
2023-04-15T01:43:46.653Z,82.41
2023-04-15T01:46:14.432Z,82.77
2023-04-15T01:48:42.140Z,82.70
2023-04-15T01:51:09.732Z,84.04
2023-04-15T01:53:37.337Z,85.84
2023-04-15T01:56:05.602Z,85.89
2023-04-15T01:58:33.237Z,85.48
2023-04-15T02:01:02.985Z,85.67
2023-04-15T02:03:32.966Z,85.58
2023-04-15T02:06:00.889Z,85.64
2023-04-15T02:08:29.707Z,85.38
2023-04-15T02:10:57.417Z,85.88
2023-04-15T02:13:26.165Z,85.83
2023-04-15T02:15:56.197Z,85.62
2023-04-15T02:18:25.130Z,85.67
2023-04-15T02:20:53.244Z,85.50
2023-04-15T02:23:20.872Z,85.52
2023-04-15T02:25:53.296Z,85.14
2023-04-15T02:28:21.800Z,85.07
2023-04-15T02:30:50.914Z,84.86
2023-04-15T02:33:18.630Z,84.22
2023-04-15T02:35:47.542Z,83.52
2023-04-15T02:38:17.954Z,82.20
2023-04-15T02:40:46.127Z,82.30
2023-04-15T02:43:13.887Z,81.51
2023-04-15T02:45:43.438Z,81.33
2023-04-15T02:48:11.522Z,81.15
2023-04-15T02:50:40.719Z,80.73
2023-04-15T02:53:11.828Z,80.75
2023-04-15T02:55:39.731Z,80.42
2023-04-15T02:58:07.708Z,80.33
2023-04-15T03:00:35.577Z,80.79
2023-04-15T03:03:05.307Z,80.94
2023-04-15T03:05:33.497Z,81.16
2023-04-15T03:08:04.362Z,82.03
2023-04-15T03:10:33.395Z,82.68
2023-04-15T03:13:02.700Z,82.77
2023-04-15T03:15:30.724Z,82.55
2023-04-15T03:17:58.604Z,82.67
2023-04-15T03:20:26.329Z,83.13
2023-04-15T03:22:54.518Z,83.21
2023-04-15T03:25:24.227Z,82.97
2023-04-15T03:27:53.530Z,82.27
2023-04-15T03:30:21.469Z,82.43
2023-04-15T03:32:49.289Z,82.16
2023-04-15T03:35:17.122Z,82.72
2023-04-15T03:37:44.949Z,82.80
2023-04-15T03:40:13.467Z,83.05
2023-04-15T03:42:41.176Z,82.66
2023-04-15T03:45:11.078Z,82.69
2023-04-15T03:47:38.860Z,82.80
2023-04-15T03:50:07.495Z,82.69
2023-04-15T03:52:35.534Z,83.01
2023-04-15T03:55:03.176Z,82.89
2023-04-15T03:57:31.307Z,82.76
2023-04-15T03:59:58.882Z,82.64
2023-04-15T04:02:28.433Z,82.55
2023-04-15T04:04:56.174Z,82.42
2023-04-15T04:07:25.460Z,81.82
2023-04-15T04:09:53.076Z,82.31
2023-04-15T04:12:21.040Z,81.98
2023-04-15T04:14:48.609Z,82.34
2023-04-15T04:17:16.443Z,82.83
2023-04-15T04:19:45.348Z,82.58
2023-04-15T04:22:13.057Z,83.27
2023-04-15T04:24:40.683Z,83.40
2023-04-15T04:27:08.512Z,83.21
2023-04-15T04:29:36.064Z,82.96
2023-04-15T04:32:04.015Z,82.73
2023-04-15T04:34:32.479Z,82.26
2023-04-15T04:37:01.616Z,82.18
2023-04-15T04:39:29.180Z,81.64
2023-04-15T04:41:57.505Z,81.37
2023-04-15T04:44:25.181Z,80.91
2023-04-15T04:46:54.084Z,80.78
2023-04-15T04:49:21.666Z,80.84
2023-04-15T04:51:49.423Z,80.77
2023-04-15T04:54:18.643Z,81.42
2023-04-15T04:56:46.309Z,81.46
2023-04-15T04:59:14.165Z,81.73
2023-04-15T05:01:41.931Z,81.45
2023-04-15T05:04:09.656Z,81.70
2023-04-15T05:06:37.465Z,81.70
2023-04-15T05:09:05.356Z,82.03
2023-04-15T05:11:34.429Z,81.61
2023-04-15T05:14:02.479Z,81.66
2023-04-15T05:16:30.102Z,81.87
2023-04-15T05:18:57.987Z,82.05
2023-04-15T05:21:25.900Z,81.69
2023-04-15T05:23:53.634Z,81.93
2023-04-15T05:26:21.699Z,81.81
2023-04-15T05:28:50.913Z,81.23
2023-04-15T05:31:18.537Z,81.01
2023-04-15T05:33:46.450Z,81.11
2023-04-15T05:36:14.007Z,80.85
2023-04-15T05:38:42.156Z,79.92
2023-04-15T05:41:09.977Z,80.20
2023-04-15T05:43:37.777Z,79.56
2023-04-15T05:46:06.779Z,79.03
2023-04-15T05:48:34.601Z,78.36
2023-04-15T05:51:02.344Z,77.75
2023-04-15T05:53:30.039Z,77.85
2023-04-15T05:55:57.914Z,77.81
2023-04-15T05:58:25.826Z,76.50
2023-04-15T06:00:53.517Z,75.64
2023-04-15T06:03:23.135Z,75.26
2023-04-15T06:05:50.844Z,75.53
2023-04-15T06:08:19.031Z,75.68
2023-04-15T06:10:46.699Z,74.83
2023-04-15T06:13:14.399Z,75.66
2023-04-15T06:15:42.212Z,75.71
2023-04-15T06:18:10.090Z,75.63
2023-04-15T06:20:39.466Z,74.48
2023-04-15T06:23:07.092Z,73.67
2023-04-15T06:25:34.657Z,73.95
2023-04-15T06:28:02.382Z,72.79
2023-04-15T06:30:30.248Z,73.18
2023-04-15T06:32:58.041Z,73.42
2023-04-15T06:35:26.093Z,73.16
2023-04-15T06:37:54.972Z,72.59
2023-04-15T06:40:22.675Z,72.25
2023-04-15T06:42:50.387Z,71.73
2023-04-15T06:45:18.222Z,71.45
2023-04-15T06:47:45.817Z,71.92
2023-04-15T06:50:13.621Z,72.51
2023-04-15T06:52:41.488Z,70.76
2023-04-15T06:55:11.338Z,70.38
2023-04-15T06:57:39.005Z,70.61
2023-04-15T07:00:07.738Z,71.29
2023-04-15T07:02:35.564Z,72.26
2023-04-15T07:05:03.392Z,72.30
2023-04-15T07:07:31.122Z,70.79
2023-04-15T07:09:58.803Z,69.22
2023-04-15T07:12:27.780Z,70.08
2023-04-15T07:14:55.352Z,70.49
2023-04-15T07:17:23.089Z,70.80
2023-04-15T07:19:50.723Z,69.96
2023-04-15T07:22:18.291Z,70.21
2023-04-15T07:24:46.001Z,70.57
2023-04-15T07:27:13.587Z,70.74
2023-04-15T07:29:42.842Z,69.62
2023-04-15T07:32:11.287Z,69.41
2023-04-15T07:34:39.090Z,70.43
2023-04-15T07:37:06.635Z,71.91
2023-04-15T07:39:34.230Z,71.10
2023-04-15T07:42:02.056Z,70.43
2023-04-15T07:44:29.772Z,68.52
2023-04-15T07:46:58.759Z,68.38
2023-04-15T07:49:26.623Z,71.31
2023-04-15T07:51:54.829Z,68.45
2023-04-15T07:54:22.552Z,69.67
2023-04-15T07:56:50.482Z,67.98
2023-04-15T07:59:19.044Z,70.06
2023-04-15T08:01:46.653Z,68.30
2023-04-15T08:04:15.981Z,68.55
2023-04-15T08:06:44.005Z,68.85
2023-04-15T08:09:11.838Z,68.02
2023-04-15T08:11:39.442Z,69.23
2023-04-15T08:14:07.063Z,66.04
2023-04-15T08:16:35.268Z,68.09
2023-04-15T08:19:03.907Z,67.02
2023-04-15T08:21:33.341Z,67.65
2023-04-15T08:24:01.700Z,67.03
2023-04-15T08:26:29.697Z,66.86
2023-04-15T08:28:57.587Z,66.31
2023-04-15T08:31:29.763Z,66.17
2023-04-15T08:33:58.265Z,65.93
2023-04-15T08:36:27.410Z,65.37
2023-04-15T08:38:56.638Z,66.32
2023-04-15T08:41:27.326Z,66.15
2023-04-15T08:43:58.710Z,66.59
2023-04-15T08:46:26.992Z,66.47
2023-04-15T08:48:58.162Z,67.45
2023-04-15T08:51:27.775Z,67.87
2023-04-15T08:53:57.007Z,67.12
2023-04-15T08:56:27.093Z,64.80
2023-04-15T08:58:55.303Z,62.68
2023-04-15T09:01:23.955Z,64.92
2023-04-15T09:03:52.014Z,63.31
2023-04-15T09:06:20.184Z,62.35
2023-04-15T09:08:47.767Z,63.53
2023-04-15T09:11:20.013Z,64.47
2023-04-15T09:13:48.200Z,61.31
2023-04-15T09:16:16.089Z,62.26
2023-04-15T09:18:44.236Z,64.17
2023-04-15T09:21:13.426Z,60.81
2023-04-15T09:23:43.204Z,61.92
2023-04-15T09:26:10.902Z,61.11
2023-04-15T09:28:43.956Z,61.27
2023-04-15T09:31:12.028Z,60.87
2023-04-15T09:33:57.094Z,60.57
2023-04-15T09:36:25.229Z,61.29
2023-04-15T09:38:57.067Z,59.92
2023-04-15T09:41:25.468Z,62.13
2023-04-15T09:43:54.532Z,61.51
2023-04-15T09:46:22.305Z,59.46
2023-04-15T09:49:08.696Z,58.95
2023-04-15T09:51:37.402Z,58.84
2023-04-15T09:54:05.537Z,60.02
2023-04-15T09:56:36.297Z,59.80
2023-04-15T09:59:06.450Z,58.89
2023-04-15T10:01:34.501Z,59.80
2023-04-15T10:04:04.671Z,58.41
2023-04-15T10:06:32.981Z,59.96
2023-04-15T10:09:01.652Z,59.75
2023-04-15T10:11:31.779Z,58.60
2023-04-15T10:14:00.084Z,62.22
2023-04-15T10:16:29.950Z,60.38
2023-04-15T10:18:59.046Z,60.39
2023-04-15T10:21:26.694Z,61.05
2023-04-15T10:23:54.630Z,59.08
2023-04-15T10:26:22.871Z,59.66
2023-04-15T10:28:50.682Z,59.16
2023-04-15T10:31:20.200Z,55.52
2023-04-15T10:33:50.223Z,59.39
2023-04-15T10:36:18.178Z,58.40
2023-04-15T10:38:46.773Z,55.16
2023-04-15T10:41:21.618Z,52.68
2023-04-15T10:43:51.528Z,51.45
2023-04-15T10:46:24.598Z,54.11
2023-04-15T10:48:54.966Z,52.60
2023-04-15T10:51:31.068Z,52.72
2023-04-15T10:53:59.894Z,51.85
2023-04-15T10:56:29.626Z,50.78
2023-04-15T10:58:59.505Z,50.15
2023-04-15T11:01:51.546Z,52.94
2023-04-15T11:07:43.412Z,59.76
2023-04-15T11:10:54.095Z,61.19
2023-04-15T11:13:25.061Z,62.66
2023-04-15T11:15:56.683Z,63.35
2023-04-15T11:18:28.106Z,64.65
2023-04-15T11:20:57.492Z,64.82
2023-04-15T11:23:35.133Z,66.01
2023-04-15T11:26:05.582Z,65.07
2023-04-15T11:28:34.272Z,65.75
2023-04-15T11:31:08.464Z,65.85
2023-04-15T11:33:36.246Z,66.90
2023-04-15T11:36:04.506Z,68.12
2023-04-15T11:38:35.520Z,69.03
2023-04-15T11:41:03.210Z,68.48
2023-04-15T11:43:35.322Z,68.45
2023-04-15T11:46:04.227Z,67.45
2023-04-15T11:48:33.608Z,66.59
2023-04-15T11:51:02.735Z,69.42
2023-04-15T11:53:44.510Z,67.25
2023-04-15T11:56:18.636Z,65.26
2023-04-15T11:58:47.201Z,64.68
2023-04-15T12:01:15.173Z,64.97
2023-04-15T12:03:44.606Z,63.18
2023-04-15T12:06:19.931Z,62.23
2023-04-15T12:09:05.048Z,62.87
2023-04-15T12:11:44.278Z,63.99
2023-04-15T12:14:22.654Z,63.03
2023-04-15T12:16:52.488Z,63.37
2023-04-15T12:19:25.884Z,62.35
2023-04-15T12:22:00.241Z,64.73
2023-04-15T12:24:32.993Z,64.05
2023-04-15T12:27:03.934Z,61.62
2023-04-15T12:29:32.603Z,61.84
2023-04-15T12:32:06.764Z,59.57
2023-04-15T12:34:36.731Z,61.40
2023-04-15T12:37:06.083Z,61.75
2023-04-15T12:39:38.023Z,59.90
2023-04-15T12:42:06.223Z,61.15
2023-04-15T12:44:34.542Z,59.87
2023-04-15T12:47:02.300Z,56.85
2023-04-15T12:49:30.127Z,56.23
2023-04-15T12:52:00.064Z,52.74
2023-04-15T12:54:28.005Z,53.17
2023-04-15T12:56:57.941Z,54.45
2023-04-15T12:59:25.844Z,57.37
2023-04-15T13:01:54.471Z,56.36
2023-04-15T13:04:23.005Z,56.21
2023-04-15T13:06:50.829Z,56.16
2023-04-15T13:09:18.532Z,56.06
2023-04-15T13:11:46.292Z,56.02
2023-04-15T13:14:15.776Z,55.81
2023-04-15T13:16:43.382Z,55.79
2023-04-15T13:19:11.178Z,56.34
2023-04-15T13:21:38.812Z,55.86
2023-04-15T13:24:07.172Z,57.29
2023-04-15T13:26:35.146Z,58.18
2023-04-15T13:29:02.873Z,59.49
2023-04-15T13:31:31.963Z,57.55
2023-04-15T13:33:59.732Z,58.17
2023-04-15T13:36:27.469Z,58.91
2023-04-15T13:38:55.673Z,57.46
2023-04-15T13:41:23.255Z,58.93
2023-04-15T13:43:51.170Z,58.85
2023-04-15T13:46:18.896Z,60.34
2023-04-15T13:48:48.598Z,59.51
2023-04-15T13:51:16.171Z,61.14
2023-04-15T13:53:43.876Z,58.63
2023-04-15T13:56:11.499Z,59.51
2023-04-15T13:58:39.785Z,58.68
2023-04-15T14:01:07.730Z,60.17
2023-04-15T14:03:36.634Z,60.11
2023-04-15T14:06:06.770Z,61.21
2023-04-15T14:08:34.744Z,60.95
2023-04-15T14:11:02.359Z,61.16
2023-04-15T14:13:30.119Z,60.31
2023-04-15T14:15:58.378Z,60.40
2023-04-15T14:18:26.607Z,61.16
2023-04-15T14:20:54.292Z,59.79
2023-04-15T14:23:23.423Z,60.63
2023-04-15T14:25:51.597Z,58.41
2023-04-15T14:28:19.326Z,61.42
2023-04-15T14:30:47.375Z,59.20
2023-04-15T14:33:15.247Z,62.07
2023-04-15T14:35:42.914Z,60.48
2023-04-15T14:38:11.631Z,60.10
2023-04-15T14:40:42.217Z,60.53
2023-04-15T14:43:10.189Z,61.46
2023-04-15T14:45:40.687Z,62.34
2023-04-15T14:48:12.650Z,62.58
2023-04-15T14:50:40.893Z,61.88
2023-04-15T14:53:08.712Z,62.12
2023-04-15T14:55:36.285Z,62.16
2023-04-15T14:58:06.109Z,61.59
2023-04-15T15:00:34.004Z,60.87
2023-04-15T15:03:01.884Z,61.98
2023-04-15T15:05:29.747Z,61.90
2023-04-15T15:07:57.559Z,61.72
2023-04-15T15:10:32.872Z,62.98
2023-04-15T15:13:14.799Z,63.50
2023-04-15T15:15:42.674Z,65.51
2023-04-15T15:18:11.263Z,62.15
2023-04-15T15:20:39.164Z,65.80
2023-04-15T15:23:06.772Z,68.77
2023-04-15T15:25:34.404Z,68.54
2023-04-15T15:28:01.979Z,70.21
2023-04-15T15:30:31.479Z,72.29
2023-04-15T15:32:59.188Z,72.75
2023-04-15T15:35:27.028Z,74.84
2023-04-15T15:37:54.942Z,75.31
2023-04-15T15:40:22.854Z,75.66
2023-04-15T15:42:50.956Z,76.36
2023-04-15T15:45:19.040Z,76.28
2023-04-15T15:47:48.812Z,76.14
2023-04-15T15:50:16.604Z,77.12
2023-04-15T15:52:44.190Z,78.41
2023-04-15T15:55:11.946Z,78.31
2023-04-15T15:57:39.500Z,78.00
2023-04-15T16:00:12.033Z,78.07
2023-04-15T16:03:05.165Z,78.01
2023-04-15T16:05:29.753Z,78.20
2023-04-15T16:07:57.379Z,78.62
2023-04-15T16:10:25.434Z,79.59
2023-04-15T16:12:53.064Z,79.87
2023-04-15T16:15:21.241Z,80.26
2023-04-15T16:17:48.867Z,79.88
2023-04-15T16:20:17.184Z,80.91
2023-04-15T16:22:46.320Z,81.79
2023-04-15T16:25:14.068Z,82.35
2023-04-15T16:27:57.122Z,81.74
2023-04-15T16:30:27.173Z,80.41
2023-04-15T16:32:54.866Z,80.93
2023-04-15T16:35:22.516Z,78.94
2023-04-15T16:37:51.458Z,78.55
2023-04-15T16:40:19.322Z,78.90
2023-04-15T16:42:46.922Z,77.84
2023-04-15T16:45:14.757Z,77.88
2023-04-15T16:47:42.553Z,76.77
2023-04-15T16:50:11.409Z,77.45
2023-04-15T16:52:39.040Z,76.53
2023-04-15T16:55:08.593Z,75.95
2023-04-15T16:57:54.103Z,75.94
2023-04-15T17:00:23.986Z,75.58
2023-04-15T17:02:51.697Z,76.17
2023-04-15T17:05:19.779Z,75.83
2023-04-15T17:07:47.335Z,75.03
2023-04-15T17:10:16.427Z,75.10
2023-04-15T17:12:44.068Z,75.68
2023-04-15T17:15:11.699Z,75.77
2023-04-15T17:17:39.345Z,76.92
2023-04-15T17:20:08.005Z,76.99
2023-04-15T17:22:35.700Z,77.11
2023-04-15T17:25:04.557Z,77.62
2023-04-15T17:27:33.581Z,77.31
2023-04-15T17:30:01.318Z,79.13
2023-04-15T17:32:31.931Z,77.85
2023-04-15T17:34:59.693Z,77.53
2023-04-15T17:37:27.672Z,76.74
2023-04-15T17:39:55.350Z,77.35
2023-04-15T17:42:23.291Z,77.53
2023-04-15T17:44:52.180Z,79.13
2023-04-15T17:47:20.420Z,79.77
2023-04-15T17:49:48.106Z,79.87
2023-04-15T17:52:15.847Z,80.01
2023-04-15T17:54:43.466Z,80.29
2023-04-15T17:57:11.368Z,80.70
2023-04-15T17:59:43.743Z,81.39
2023-04-15T18:02:12.952Z,82.92
2023-04-15T18:04:40.671Z,83.42
2023-04-15T18:07:08.726Z,84.21
2023-04-15T18:09:36.632Z,84.97
2023-04-15T18:12:04.605Z,85.60
2023-04-15T18:14:34.939Z,85.56
2023-04-15T18:17:03.768Z,85.52
2023-04-15T18:19:32.868Z,85.88
2023-04-15T18:22:00.892Z,86.28
2023-04-15T18:24:28.694Z,86.03
2023-04-15T18:26:56.679Z,86.17
2023-04-15T18:29:25.216Z,85.96
2023-04-15T18:31:53.661Z,85.75
2023-04-15T18:34:21.322Z,85.45
2023-04-15T18:36:50.427Z,86.32
2023-04-15T18:39:18.083Z,86.54
2023-04-15T18:41:45.892Z,86.81
2023-04-15T18:44:13.494Z,87.05
2023-04-15T18:46:41.320Z,86.55
2023-04-15T18:49:08.907Z,86.68
2023-04-15T18:51:37.061Z,86.84
2023-04-15T18:54:06.156Z,86.66
2023-04-15T18:56:33.880Z,86.90
2023-04-15T18:59:18.457Z,87.18
2023-04-15T19:01:49.803Z,87.39
2023-04-15T19:04:17.421Z,87.35
2023-04-15T19:06:45.042Z,87.38
2023-04-15T19:09:13.982Z,87.47
2023-04-15T19:11:41.693Z,86.79
2023-04-15T19:14:09.314Z,87.09
2023-04-15T19:16:37.218Z,87.10
2023-04-15T19:19:06.479Z,87.38
2023-04-15T19:21:34.558Z,87.75
2023-04-15T19:24:02.915Z,87.96
2023-04-15T19:26:31.925Z,87.56
2023-04-15T19:28:59.746Z,87.90
2023-04-15T19:31:27.348Z,87.48
2023-04-15T19:33:55.057Z,88.27
2023-04-15T19:36:22.659Z,88.58
2023-04-15T19:38:50.408Z,88.91
2023-04-15T19:41:18.068Z,88.76
2023-04-15T19:43:47.146Z,89.62
2023-04-15T19:46:15.075Z,89.19
2023-04-15T19:48:42.977Z,89.54
2023-04-15T19:51:10.751Z,89.54
2023-04-15T19:53:38.397Z,89.60
2023-04-15T19:56:06.427Z,90.24
2023-04-15T19:58:34.298Z,89.81
2023-04-15T20:01:03.592Z,90.76
2023-04-15T20:03:32.076Z,90.18
2023-04-15T20:05:59.876Z,90.63
2023-04-15T20:08:27.865Z,90.55
2023-04-15T20:10:55.610Z,91.02
2023-04-15T20:13:23.468Z,92.09
2023-04-15T20:15:51.183Z,91.87
2023-04-15T20:18:20.168Z,91.86
2023-04-15T20:20:48.190Z,92.18
2023-04-15T20:23:16.112Z,92.60
2023-04-15T20:25:43.740Z,91.69
2023-04-15T20:28:11.708Z,92.07
2023-04-15T20:30:39.735Z,91.61
2023-04-15T20:33:08.118Z,92.09
2023-04-15T20:35:37.388Z,91.59
2023-04-15T20:38:05.792Z,91.28
2023-04-15T20:40:33.744Z,91.46
2023-04-15T20:43:01.491Z,91.49
2023-04-15T20:45:29.278Z,91.52
2023-04-15T20:47:57.077Z,90.91
2023-04-15T20:50:24.662Z,90.65
2023-04-15T20:52:53.848Z,91.25
2023-04-15T20:55:21.523Z,91.48
2023-04-15T20:57:49.391Z,91.41
2023-04-15T21:00:17.199Z,91.85
2023-04-15T21:02:45.128Z,92.39
2023-04-15T21:05:13.038Z,92.38
2023-04-15T21:07:41.231Z,91.78
2023-04-15T21:10:10.874Z,90.11
2023-04-15T21:12:40.758Z,89.13
2023-04-15T21:15:09.420Z,89.70
2023-04-15T21:17:37.129Z,89.91
2023-04-15T21:20:05.307Z,89.83
2023-04-15T21:22:32.916Z,89.99
2023-04-15T21:25:00.601Z,89.94
2023-04-15T21:27:29.524Z,90.01
2023-04-15T21:29:57.369Z,89.64
2023-04-15T21:32:25.007Z,89.85
2023-04-15T21:34:52.721Z,89.53
2023-04-15T21:37:20.304Z,89.86
2023-04-15T21:39:48.129Z,90.27
2023-04-15T21:42:15.746Z,90.21
2023-04-15T21:44:44.836Z,90.64
2023-04-15T21:47:12.615Z,90.66
2023-04-15T21:49:40.711Z,90.58
2023-04-15T21:52:08.302Z,90.23
2023-04-15T21:54:37.955Z,90.09
2023-04-15T21:57:05.560Z,90.65
2023-04-15T21:59:33.361Z,90.11
2023-04-15T22:02:02.361Z,90.45
2023-04-15T22:04:30.295Z,90.82
2023-04-15T22:07:01.571Z,90.50
2023-04-15T22:09:29.263Z,89.93
2023-04-15T22:11:57.562Z,89.84
2023-04-15T22:14:25.259Z,89.92
2023-04-15T22:16:53.050Z,89.82
2023-04-15T22:19:22.183Z,89.79
2023-04-15T22:21:50.968Z,89.39
2023-04-15T22:24:39.017Z,90.25
2023-04-15T22:27:06.718Z,89.84
2023-04-15T22:29:34.903Z,89.20
2023-04-15T22:32:02.495Z,89.34
2023-04-15T22:34:31.744Z,90.23
2023-04-15T22:36:59.343Z,89.80
2023-04-15T22:39:27.260Z,89.83
2023-04-15T22:41:54.822Z,89.62
2023-04-15T22:44:22.656Z,89.94
2023-04-15T22:46:51.712Z,89.70
2023-04-15T22:49:19.594Z,89.77
2023-04-15T22:51:48.815Z,90.24
2023-04-15T22:54:16.446Z,89.80
2023-04-15T22:56:44.291Z,90.74
2023-04-15T22:59:11.887Z,90.80
2023-04-15T23:01:39.727Z,90.65
2023-04-15T23:04:09.781Z,90.72
2023-04-15T23:06:56.169Z,90.48
2023-04-15T23:09:23.850Z,90.24
2023-04-15T23:11:51.749Z,90.63
2023-04-15T23:14:19.322Z,90.57
2023-04-15T23:16:46.905Z,90.87
2023-04-15T23:19:14.559Z,91.88
2023-04-15T23:21:42.213Z,91.93
2023-04-15T23:24:11.145Z,92.44
2023-04-15T23:26:38.981Z,92.62
2023-04-15T23:29:07.316Z,93.32
2023-04-15T23:31:35.173Z,93.06
2023-04-15T23:34:03.933Z,93.51
2023-04-15T23:36:32.025Z,93.06
2023-04-15T23:38:59.659Z,93.12
2023-04-15T23:41:29.109Z,92.88
2023-04-15T23:43:56.680Z,92.49
2023-04-15T23:46:24.407Z,91.88
2023-04-15T23:48:51.996Z,91.36
2023-04-15T23:51:19.692Z,91.45
2023-04-15T23:53:47.280Z,91.98
2023-04-15T23:56:15.079Z,92.11
2023-04-15T23:58:44.013Z,92.88
